createdAt,value
2018-02-27T05:28:28.952Z,15.93
2018-02-27T05:31:00.848Z,16.17
2018-02-27T05:33:33.503Z,17.77
2018-02-27T05:36:05.391Z,12.63
2018-02-27T05:38:38.068Z,15.47
2018-02-27T05:41:10.711Z,16.47
2018-02-27T05:43:42.938Z,15.83
2018-02-27T05:46:15.100Z,13.63
2018-02-27T05:48:47.015Z,16.03
2018-02-27T05:51:19.233Z,17.80
2018-02-27T05:53:51.400Z,20.87
2018-02-27T05:56:23.304Z,19.23
2018-02-27T05:58:55.198Z,17.30
2018-02-27T06:01:27.943Z,16.40
2018-02-27T06:03:59.908Z,17.37
2018-02-27T06:06:31.873Z,17.97
2018-02-27T06:09:03.767Z,18.17
2018-02-27T06:11:35.659Z,17.60
2018-02-27T06:14:07.647Z,17.90
2018-02-27T06:16:39.531Z,18.83
2018-02-27T06:19:12.287Z,18.00
2018-02-27T06:21:45.195Z,18.57
2018-02-27T06:24:17.103Z,20.43
2018-02-27T06:26:48.986Z,16.77
2018-02-27T06:29:20.919Z,15.20
2018-02-27T06:31:52.807Z,17.10
2018-02-27T06:34:24.707Z,14.57
2018-02-27T06:36:57.373Z,17.93
2018-02-27T06:39:29.369Z,18.73
2018-02-27T06:42:01.250Z,15.83
2018-02-27T06:44:33.363Z,21.43
2018-02-27T06:47:06.018Z,19.03
2018-02-27T06:49:37.928Z,18.77
2018-02-27T06:52:09.807Z,18.80
2018-02-27T06:54:41.715Z,18.90
2018-02-27T06:57:13.594Z,17.90
2018-02-27T06:59:46.260Z,18.47
2018-02-27T07:02:18.146Z,17.63
2018-02-27T07:04:50.049Z,17.27
2018-02-27T07:07:21.926Z,17.60
2018-02-27T07:09:53.822Z,20.07
2018-02-27T07:12:25.710Z,18.63
2018-02-27T07:14:57.619Z,20.50
2018-02-27T07:17:29.506Z,16.53
2018-02-27T07:20:01.456Z,17.70
2018-02-27T07:22:34.364Z,18.00
2018-02-27T07:25:06.268Z,17.17
2018-02-27T07:27:38.151Z,18.80
2018-02-27T07:30:10.831Z,18.33
2018-02-27T07:32:42.714Z,15.33
2018-02-27T07:35:14.627Z,19.27
2018-02-27T07:37:46.511Z,13.97
2018-02-27T07:40:19.183Z,17.43
2018-02-27T07:42:51.069Z,17.73
2018-02-27T07:45:22.962Z,13.60
2018-02-27T07:47:54.871Z,15.57
2018-02-27T07:50:26.771Z,17.90
2018-02-27T07:52:58.653Z,12.00
2018-02-27T07:55:30.574Z,16.67
2018-02-27T07:58:03.256Z,12.50
2018-02-27T08:00:35.155Z,14.90
2018-02-27T08:03:07.038Z,14.43
2018-02-27T08:05:38.938Z,14.40
2018-02-27T08:08:10.828Z,15.53
2018-02-27T08:10:42.744Z,13.03
2018-02-27T08:13:15.455Z,13.87
2018-02-27T08:15:47.359Z,15.83
2018-02-27T08:18:19.246Z,13.17
2018-02-27T08:20:51.159Z,12.70
2018-02-27T08:23:23.047Z,18.30
2018-02-27T08:25:54.981Z,10.83
2018-02-27T08:28:27.110Z,14.40
2018-02-27T08:30:59.016Z,13.43
2018-02-27T08:33:30.895Z,16.53
2018-02-27T08:36:02.806Z,9.70
2018-02-27T08:38:35.060Z,12.83
2018-02-27T08:41:06.963Z,10.87
2018-02-27T08:43:40.360Z,13.00
2018-02-27T08:46:12.255Z,14.17
2018-02-27T08:48:44.899Z,11.93
2018-02-27T08:51:16.796Z,12.83
2018-02-27T08:53:49.696Z,14.87
2018-02-27T08:56:21.819Z,10.23
2018-02-27T08:58:53.691Z,9.37
2018-02-27T09:01:26.607Z,11.70
2018-02-27T09:03:58.487Z,9.30
2018-02-27T09:06:30.737Z,14.00
2018-02-27T09:09:02.903Z,8.30
2018-02-27T09:11:34.803Z,9.17
2018-02-27T09:14:06.929Z,8.73
2018-02-27T09:16:38.835Z,10.23
2018-02-27T09:19:10.824Z,10.97
2018-02-27T09:21:42.666Z,8.37
2018-02-27T09:24:14.541Z,7.47
2018-02-27T09:26:47.219Z,10.13
2018-02-27T09:29:19.090Z,7.83
2018-02-27T09:31:51.748Z,9.03
2018-02-27T09:34:23.628Z,8.67
2018-02-27T09:36:56.630Z,10.10
2018-02-27T09:39:28.514Z,7.17
2018-02-27T09:42:00.438Z,8.97
2018-02-27T09:44:33.088Z,7.90
2018-02-27T09:47:05.007Z,9.10
2018-02-27T09:49:36.882Z,8.40
2018-02-27T09:52:09.157Z,8.23
2018-02-27T09:54:41.287Z,7.37
2018-02-27T09:57:13.200Z,9.57
2018-02-27T09:59:45.080Z,7.97
2018-02-27T10:02:17.844Z,9.23
2018-02-27T10:04:49.721Z,5.80
2018-02-27T10:07:22.395Z,7.67
2018-02-27T10:09:54.275Z,10.40
2018-02-27T10:12:26.935Z,5.50
2018-02-27T10:14:59.588Z,7.23
2018-02-27T10:17:31.483Z,7.27
2018-02-27T10:20:04.140Z,5.83
2018-02-27T10:22:36.099Z,5.23
2018-02-27T10:25:08.000Z,8.60
2018-02-27T10:27:39.899Z,5.80
2018-02-27T10:30:11.837Z,8.17
2018-02-27T10:32:43.762Z,5.60
2018-02-27T10:35:15.698Z,7.90
2018-02-27T10:37:47.611Z,7.27
2018-02-27T10:40:19.491Z,7.90
2018-02-27T10:42:51.602Z,7.67
2018-02-27T10:45:24.257Z,3.60
2018-02-27T10:47:56.974Z,10.90
2018-02-27T10:50:30.530Z,5.67
2018-02-27T10:53:02.472Z,6.40
2018-02-27T10:55:34.359Z,11.73
2018-02-27T10:58:06.298Z,12.32
2018-02-27T11:00:38.195Z,6.27
2018-02-27T11:03:10.402Z,7.70
2018-02-27T11:05:42.403Z,5.57
2018-02-27T11:08:14.398Z,6.03
2018-02-27T11:10:46.301Z,7.60
2018-02-27T11:13:18.229Z,4.80
2018-02-27T11:15:50.170Z,4.83
2018-02-27T11:18:22.908Z,6.87
2018-02-27T11:20:54.820Z,4.03
2018-02-27T11:23:26.746Z,3.97
2018-02-27T11:25:58.642Z,9.67
2018-02-27T11:28:31.329Z,6.87
2018-02-27T11:31:03.991Z,11.60
2018-02-27T11:33:35.887Z,3.73
2018-02-27T11:36:07.792Z,5.20
2018-02-27T11:38:39.715Z,6.27
2018-02-27T11:41:11.599Z,7.40
2018-02-27T11:43:43.495Z,6.07
2018-02-27T11:46:15.696Z,7.10
2018-02-27T11:48:47.657Z,7.80
2018-02-27T11:51:20.306Z,5.17
2018-02-27T11:53:52.355Z,6.23
2018-02-27T11:56:24.295Z,4.13
2018-02-27T11:58:56.244Z,4.37
2018-02-27T12:01:28.277Z,4.27
2018-02-27T12:04:00.961Z,5.03
2018-02-27T12:06:32.847Z,5.63
2018-02-27T12:09:04.767Z,4.40
2018-02-27T12:11:37.414Z,7.77
2018-02-27T12:14:09.342Z,4.33
2018-02-27T12:16:41.280Z,4.90
2018-02-27T12:19:13.960Z,4.53
2018-02-27T12:21:45.865Z,4.20
2018-02-27T12:24:17.899Z,5.87
2018-02-27T12:26:49.801Z,4.00
2018-02-27T12:29:21.713Z,4.60
2018-02-27T12:31:53.902Z,3.80
2018-02-27T12:34:25.837Z,4.90
2018-02-27T12:36:58.625Z,5.37
2018-02-27T12:39:30.563Z,2.83
2018-02-27T12:42:03.204Z,5.07
2018-02-27T12:44:35.135Z,4.20
2018-02-27T12:47:07.040Z,5.80
2018-02-27T12:49:38.967Z,3.27
2018-02-27T12:52:10.833Z,4.20
2018-02-27T12:54:42.748Z,5.47
2018-02-27T12:57:15.387Z,4.20
2018-02-27T12:59:47.607Z,3.87
2018-02-27T13:02:19.495Z,4.60
2018-02-27T13:04:51.412Z,6.90
2018-02-27T13:07:24.066Z,3.83
2018-02-27T13:09:55.996Z,4.43
2018-02-27T13:12:27.883Z,3.70
2018-02-27T13:14:59.995Z,7.63
2018-02-27T13:17:31.956Z,5.30
2018-02-27T13:20:04.123Z,7.67
2018-02-27T13:22:35.999Z,3.00
2018-02-27T13:25:07.896Z,4.27
2018-02-27T13:27:39.767Z,3.37
2018-02-27T13:30:11.677Z,3.23
2018-02-27T13:32:43.568Z,2.87
2018-02-27T13:35:15.798Z,6.37
2018-02-27T13:37:47.677Z,3.73
2018-02-27T13:40:19.583Z,2.87
2018-02-27T13:42:51.476Z,4.20
2018-02-27T13:45:23.537Z,3.80
2018-02-27T13:47:56.263Z,3.83
2018-02-27T13:50:28.168Z,3.07
2018-02-27T13:53:00.832Z,4.20
2018-02-27T13:55:33.515Z,5.43
2018-02-27T13:58:06.160Z,9.40
2018-02-27T14:00:38.079Z,2.73
2018-02-27T14:03:09.968Z,6.03
2018-02-27T14:05:42.057Z,3.97
2018-02-27T14:08:14.066Z,3.27
2018-02-27T14:10:47.095Z,3.67
2018-02-27T14:13:18.975Z,5.93
2018-02-27T14:15:51.211Z,5.03
2018-02-27T14:18:23.227Z,6.10
2018-02-27T14:20:56.079Z,7.07
2018-02-27T14:23:28.192Z,8.17
2018-02-27T14:26:00.112Z,5.10
2018-02-27T14:28:32.220Z,10.13
2018-02-27T14:31:04.494Z,10.00
2018-02-27T14:33:36.658Z,3.80
2018-02-27T14:36:08.634Z,7.73
2018-02-27T14:38:40.535Z,6.30
2018-02-27T14:41:12.438Z,7.20
2018-02-27T14:43:44.445Z,6.27
2018-02-27T14:46:17.171Z,5.00
2018-02-27T14:48:49.880Z,5.57
2018-02-27T14:51:21.833Z,5.37
2018-02-27T14:53:53.768Z,5.07
2018-02-27T14:56:26.427Z,4.43
2018-02-27T14:58:58.344Z,9.73
2018-02-27T15:01:30.250Z,5.87
2018-02-27T15:04:02.120Z,11.27
2018-02-27T15:06:34.784Z,4.67
2018-02-27T15:09:06.984Z,5.03
2018-02-27T15:11:38.935Z,5.30
2018-02-27T15:14:11.571Z,4.17
2018-02-27T15:16:43.533Z,10.33
2018-02-27T15:19:15.415Z,4.53
2018-02-27T15:21:47.307Z,4.57
2018-02-27T15:24:19.203Z,5.07
2018-02-27T15:26:51.103Z,4.80
2018-02-27T15:29:23.750Z,6.20
2018-02-27T15:31:55.638Z,5.20
2018-02-27T15:34:27.677Z,4.67
2018-02-27T15:37:00.393Z,12.17
2018-02-27T15:39:33.047Z,4.00
2018-02-27T15:42:04.943Z,5.90
2018-02-27T15:44:37.472Z,3.53
2018-02-27T15:47:09.694Z,4.07
2018-02-27T15:49:41.598Z,8.37
2018-02-27T15:52:13.483Z,5.37
2018-02-27T15:54:45.429Z,6.60
2018-02-27T15:57:17.639Z,7.63
2018-02-27T15:59:49.529Z,5.07
2018-02-27T16:02:21.419Z,9.97
2018-02-27T16:04:53.300Z,5.27
2018-02-27T16:07:25.963Z,4.60
2018-02-27T16:09:57.839Z,5.20
2018-02-27T16:12:30.526Z,5.10
2018-02-27T16:15:03.171Z,5.30
2018-02-27T16:17:35.096Z,7.67
2018-02-27T16:20:06.972Z,5.87
2018-02-27T16:22:38.858Z,7.97
2018-02-27T16:25:10.816Z,7.83
2018-02-27T16:27:42.767Z,4.33
2018-02-27T16:30:14.654Z,6.93
2018-02-27T16:32:47.421Z,7.40
2018-02-27T16:35:19.299Z,6.07
2018-02-27T16:37:52.001Z,6.10
2018-02-27T16:40:24.636Z,6.30
2018-02-27T16:42:56.578Z,4.87
2018-02-27T16:45:29.174Z,6.10
2018-02-27T16:48:01.088Z,5.57
2018-02-27T16:50:32.964Z,6.20
2018-02-27T16:53:04.858Z,4.90
2018-02-27T16:55:36.736Z,5.33
2018-02-27T16:58:08.927Z,5.53
2018-02-27T17:00:40.859Z,7.23
2018-02-27T17:03:12.754Z,8.13
2018-02-27T17:05:44.632Z,5.33
2018-02-27T17:08:16.775Z,6.43
2018-02-27T17:10:48.666Z,5.20
2018-02-27T17:13:20.586Z,5.10
2018-02-27T17:15:53.479Z,4.33
2018-02-27T17:18:25.387Z,5.67
2018-02-27T17:20:58.040Z,10.73
2018-02-27T17:23:29.929Z,7.43
2018-02-27T17:26:01.812Z,6.17
2018-02-27T17:28:34.012Z,6.80
2018-02-27T17:31:05.882Z,4.27
2018-02-27T17:33:37.863Z,5.30
2018-02-27T17:36:09.768Z,5.17
2018-02-27T17:38:42.435Z,8.23
2018-02-27T17:41:14.376Z,4.67
2018-02-27T17:43:46.269Z,6.47
2018-02-27T17:46:18.921Z,4.13
2018-02-27T17:48:50.837Z,5.33
2018-02-27T17:51:22.732Z,8.77
2018-02-27T17:53:54.755Z,3.53
2018-02-27T17:56:26.924Z,5.20
2018-02-27T17:58:59.028Z,5.43
2018-02-27T18:01:30.896Z,5.10
2018-02-27T18:04:02.854Z,8.03
2018-02-27T18:06:34.833Z,4.43
2018-02-27T18:09:06.719Z,4.70
2018-02-27T18:11:39.374Z,4.47
2018-02-27T18:14:11.285Z,3.87
2018-02-27T18:16:43.188Z,9.43
2018-02-27T18:19:15.074Z,5.03
2018-02-27T18:21:47.716Z,6.13
2018-02-27T18:24:19.616Z,5.17
2018-02-27T18:26:52.255Z,5.50
2018-02-27T18:29:24.158Z,4.47
2018-02-27T18:31:56.806Z,5.40
2018-02-27T18:34:28.701Z,4.10
2018-02-27T18:37:00.581Z,5.40
2018-02-27T18:39:32.467Z,8.77
2018-02-27T18:42:04.387Z,4.60
2018-02-27T18:44:36.518Z,6.47
2018-02-27T18:47:09.176Z,5.90
2018-02-27T18:49:41.127Z,7.90
2018-02-27T18:52:13.006Z,4.83
2018-02-27T18:54:44.932Z,4.87
2018-02-27T18:57:16.823Z,4.00
2018-02-27T18:59:48.714Z,4.47
2018-02-27T19:02:21.623Z,9.27
2018-02-27T19:04:53.893Z,5.57
2018-02-27T19:07:26.053Z,7.43
2018-02-27T19:09:57.960Z,8.43
2018-02-27T19:12:29.866Z,10.13
2018-02-27T19:15:01.891Z,4.33
2018-02-27T19:17:33.912Z,5.67
2018-02-27T19:20:06.635Z,4.53
2018-02-27T19:22:39.282Z,4.57
2018-02-27T19:25:11.180Z,4.73
2018-02-27T19:27:43.088Z,7.23
2018-02-27T19:30:15.088Z,6.33
2018-02-27T19:32:46.992Z,5.10
2018-02-27T19:35:18.903Z,7.40
2018-02-27T19:37:50.775Z,4.27
2018-02-27T19:40:22.712Z,5.70
2018-02-27T19:42:55.308Z,4.50
2018-02-27T19:45:27.207Z,4.97
2018-02-27T19:47:59.844Z,5.10
2018-02-27T19:50:31.746Z,6.67
2018-02-27T19:53:04.647Z,8.00
2018-02-27T19:55:36.551Z,6.67
2018-02-27T19:58:08.427Z,5.67
2018-02-27T20:00:40.337Z,5.67
2018-02-27T20:03:12.211Z,7.03
2018-02-27T20:05:44.111Z,5.83
2018-02-27T20:08:16.096Z,7.73
2018-02-27T20:10:48.819Z,6.47
2018-02-27T20:13:20.853Z,7.87
2018-02-27T20:15:52.852Z,7.23
2018-02-27T20:18:24.736Z,9.70
2018-02-27T20:20:56.695Z,6.53
2018-02-27T20:23:28.622Z,6.37
2018-02-27T20:26:00.891Z,5.97
2018-02-27T20:28:32.759Z,11.73
2018-02-27T20:31:04.656Z,10.30
2018-02-27T20:33:36.546Z,10.67
2018-02-27T20:36:09.199Z,6.20
2018-02-27T20:38:41.079Z,6.90
2018-02-27T20:41:13.757Z,6.47
2018-02-27T20:43:46.400Z,4.80
2018-02-27T20:46:18.302Z,5.60
2018-02-27T20:48:50.407Z,6.40
2018-02-27T20:51:22.291Z,6.40
2018-02-27T20:53:54.171Z,4.90
2018-02-27T20:56:26.839Z,8.43
2018-02-27T20:58:58.718Z,8.30
2018-02-27T21:01:31.385Z,4.70
2018-02-27T21:04:03.314Z,6.50
2018-02-27T21:06:35.212Z,8.60
2018-02-27T21:09:07.878Z,7.73
2018-02-27T21:11:39.766Z,8.27
2018-02-27T21:14:11.648Z,6.73
2018-02-27T21:16:43.635Z,7.67
2018-02-27T21:19:15.519Z,9.17
2018-02-27T21:21:47.461Z,11.13
2018-02-27T21:24:19.420Z,6.97
2018-02-27T21:26:51.321Z,6.23
2018-02-27T21:29:23.962Z,10.80
2018-02-27T21:31:55.904Z,10.23
2018-02-27T21:34:28.569Z,9.27
2018-02-27T21:37:00.456Z,7.37
2018-02-27T21:39:32.331Z,7.13
2018-02-27T21:42:04.216Z,8.07
2018-02-27T21:44:36.857Z,11.23
2018-02-27T21:47:08.754Z,7.47
2018-02-27T21:49:41.388Z,11.07
2018-02-27T21:52:13.280Z,10.37
2018-02-27T21:54:45.162Z,9.43
2018-02-27T21:57:17.824Z,8.80
2018-02-27T21:59:49.755Z,7.63
2018-02-27T22:02:21.661Z,8.07
2018-02-27T22:04:54.323Z,7.20
2018-02-27T22:07:26.216Z,8.33
2018-02-27T22:09:58.103Z,6.80
